createdAt,value
2019-03-27T00:00:40.758Z,60.07
2019-03-27T00:10:42.549Z,59.59
2019-03-27T00:20:49.207Z,62.21
2019-03-27T00:30:50.174Z,60.52
2019-03-27T00:40:50.969Z,61.51
2019-03-27T00:50:52.685Z,60.58
2019-03-27T01:01:03.301Z,58.40
2019-03-27T01:11:06.666Z,58.31
2019-03-27T01:21:07.466Z,61.02
2019-03-27T01:31:08.227Z,60.91
2019-03-27T01:41:08.886Z,58.17
2019-03-27T01:51:09.739Z,55.82
2019-03-27T02:01:10.485Z,59.49
2019-03-27T02:11:11.201Z,60.86
2019-03-27T02:21:12.023Z,60.88
2019-03-27T02:31:12.772Z,60.89
2019-03-27T02:41:13.456Z,62.11
2019-03-27T02:51:14.128Z,62.84
2019-03-27T03:01:14.944Z,60.92
2019-03-27T03:11:15.630Z,63.47
2019-03-27T03:21:16.360Z,64.93
2019-03-27T03:31:17.275Z,64.32
2019-03-27T03:41:17.921Z,63.00
2019-03-27T03:51:18.653Z,61.54
2019-03-27T04:01:20.835Z,60.71
2019-03-27T04:11:21.624Z,60.68
2019-03-27T04:21:22.366Z,60.40
2019-03-27T04:31:29.187Z,61.00
2019-03-27T04:41:29.904Z,60.39
2019-03-27T04:51:30.722Z,60.87
2019-03-27T05:01:31.611Z,61.59
2019-03-27T05:11:32.347Z,62.67
2019-03-27T05:21:34.316Z,62.46
2019-03-27T05:31:37.220Z,60.90
2019-03-27T05:41:38.960Z,62.54
2019-03-27T05:51:45.734Z,60.72
2019-03-27T06:01:48.411Z,60.86
2019-03-27T06:11:49.238Z,59.01
2019-03-27T06:21:50.913Z,57.19
2019-03-27T06:31:51.701Z,56.18
2019-03-27T06:41:53.452Z,56.37
2019-03-27T06:51:57.269Z,53.49
2019-03-27T07:01:58.052Z,52.94
2019-03-27T07:11:59.723Z,49.64
2019-03-27T07:22:00.459Z,61.47
2019-03-27T07:32:05.226Z,59.77
2019-03-27T07:42:07.338Z,51.93
2019-03-27T07:52:08.104Z,48.81
2019-03-27T08:02:08.872Z,54.25
2019-03-27T08:12:09.597Z,53.27
2019-03-27T08:22:10.317Z,53.66
2019-03-27T08:32:11.084Z,54.41
2019-03-27T08:42:11.821Z,54.67
2019-03-27T08:52:12.659Z,53.92
2019-03-27T09:02:13.431Z,51.36
2019-03-27T09:12:15.229Z,55.20
2019-03-27T09:22:16.246Z,55.01
2019-03-27T09:32:17.031Z,55.59
2019-03-27T09:42:18.960Z,56.44
2019-03-27T09:52:21.644Z,54.56
2019-03-27T10:02:22.391Z,50.98
2019-03-27T10:12:23.048Z,52.92
2019-03-27T10:22:24.752Z,54.61
2019-03-27T10:32:25.541Z,51.81
2019-03-27T10:42:28.399Z,45.03
2019-03-27T10:52:31.084Z,49.19
2019-03-27T11:02:31.931Z,49.83
2019-03-27T11:12:34.036Z,43.66
2019-03-27T11:22:34.802Z,43.66
2019-03-27T11:32:41.717Z,43.50
2019-03-27T11:42:42.453Z,44.06
2019-03-27T11:52:44.206Z,52.53
2019-03-27T12:02:46.048Z,54.56
2019-03-27T12:12:48.252Z,52.23
2019-03-27T12:22:57.933Z,50.77
2019-03-27T12:32:58.992Z,48.86
2019-03-27T12:42:59.689Z,47.42
2019-03-27T12:53:02.815Z,44.27
2019-03-27T13:03:03.701Z,44.19
2019-03-27T13:13:07.232Z,46.69
2019-03-27T13:23:08.268Z,46.32
2019-03-27T13:33:10.975Z,47.15
2019-03-27T13:43:11.717Z,47.00
2019-03-27T13:53:12.372Z,45.93
2019-03-27T14:03:13.124Z,40.72
2019-03-27T14:13:14.813Z,42.86
2019-03-27T14:23:15.567Z,40.71
2019-03-27T14:33:16.617Z,37.37
2019-03-27T14:43:17.317Z,36.81
2019-03-27T14:53:27.067Z,38.33
2019-03-27T15:03:27.781Z,40.84
2019-03-27T15:13:34.627Z,42.60
2019-03-27T15:23:36.420Z,45.20
2019-03-27T15:33:37.063Z,44.83
2019-03-27T15:43:37.899Z,43.64
2019-03-27T15:53:38.606Z,43.75
2019-03-27T16:03:39.383Z,43.98
2019-03-27T16:13:40.062Z,45.91
2019-03-27T16:23:47.509Z,43.74
2019-03-27T16:33:48.314Z,45.94
2019-03-27T16:43:49.234Z,44.98
2019-03-27T16:53:51.858Z,44.43
2019-03-27T17:03:52.645Z,45.27
2019-03-27T17:13:53.384Z,46.85
2019-03-27T17:23:55.157Z,45.73
2019-03-27T17:33:55.870Z,46.45
2019-03-27T17:43:56.646Z,48.72
2019-03-27T17:53:59.483Z,49.22
2019-03-27T18:04:01.209Z,51.40
2019-03-27T18:14:03.913Z,53.33
2019-03-27T18:24:04.654Z,52.19
2019-03-27T18:34:06.506Z,52.55
2019-03-27T18:44:07.247Z,53.26
2019-03-27T18:54:07.975Z,54.65
2019-03-27T19:04:11.911Z,54.26
2019-03-27T19:14:15.666Z,54.46
2019-03-27T19:24:17.187Z,55.64
2019-03-27T19:34:17.892Z,55.35
2019-03-27T19:44:18.690Z,56.14
2019-03-27T19:54:27.058Z,56.01
2019-03-27T20:04:21.952Z,56.43
2019-03-27T20:14:29.159Z,57.26
2019-03-27T20:24:40.482Z,57.81
2019-03-27T20:34:32.942Z,57.38
2019-03-27T20:44:33.813Z,56.85
2019-03-27T20:54:34.641Z,57.06
2019-03-27T21:04:35.701Z,56.24
2019-03-27T21:14:36.545Z,57.38
2019-03-27T21:24:37.221Z,58.32
2019-03-27T21:34:37.887Z,57.14
2019-03-27T21:44:38.578Z,57.06
2019-03-27T21:54:39.277Z,57.76
2019-03-27T22:04:40.154Z,57.83
2019-03-27T22:14:41.378Z,58.17
2019-03-27T22:24:42.142Z,59.04
2019-03-27T22:34:44.363Z,58.19
2019-03-27T22:44:48.102Z,58.01
2019-03-27T22:54:49.188Z,58.57
2019-03-27T23:04:50.074Z,59.18
2019-03-27T23:14:51.037Z,58.21
2019-03-27T23:24:51.937Z,58.61
2019-03-27T23:34:52.758Z,57.73
2019-03-27T23:44:53.763Z,58.28
2019-03-27T23:54:54.574Z,58.71
